Morning Sun, Ohio
Current Conditions -  °F | °C
As of 9:55 PM on Tuesday 21 Oct 2014 (Local Time) from KMWO Reporting Station
Overcast Overcast  
Wind Chill: 45°   Ceiling: 4800
Heat Index: 49°   Visibility: 10mi
Dew Point: 40°   Wind: 10mph
Humidity: 71%   Direction: 40°NE
Pressure: 30.19"   Gusts: NA
Location:  39.6252°N, 84.6611°W
Report Text: KMWO 220155Z AUTO 04009KT 10SM SCT028 SCT039 OVC048 10/05 A3019 RMK AO2 T00960046
Loading
Personal Weather Stations






























Interactive Weather Map
Tropical Storm Tracking
New forecast layout! Learn more

10-Day Weather Forecast

Advertisements
Track Severe Weather on mobile